createdAt,value
2018-04-27T00:02:26.975Z,101237.22
2018-04-27T00:04:57.349Z,101234.56
2018-04-27T00:07:28.062Z,101230.56
2018-04-27T00:09:58.418Z,101232.00
2018-04-27T00:12:29.001Z,101233.16
2018-04-27T00:14:59.825Z,101229.86
2018-04-27T00:17:30.192Z,101239.63
2018-04-27T00:20:00.547Z,101229.20
2018-04-27T00:22:31.256Z,101221.58
2018-04-27T00:25:01.525Z,101226.57
2018-04-27T00:27:31.630Z,101224.90
2018-04-27T00:30:04.084Z,101222.50
2018-04-27T00:32:35.718Z,101224.28
2018-04-27T00:35:06.254Z,101223.98
2018-04-27T00:37:36.602Z,101219.94
2018-04-27T00:40:06.819Z,101220.88
2018-04-27T00:42:37.601Z,101213.34
2018-04-27T00:45:12.701Z,101219.23
2018-04-27T00:47:44.355Z,101199.08
2018-04-27T00:50:16.355Z,101209.61
2018-04-27T00:52:55.793Z,101209.18
2018-04-27T00:55:26.442Z,101208.55
2018-04-27T00:57:56.603Z,101204.66
2018-04-27T01:00:27.542Z,101203.70
2018-04-27T01:03:03.135Z,101209.01
2018-04-27T01:05:33.306Z,101201.28
2018-04-27T01:08:04.883Z,101203.73
2018-04-27T01:10:35.796Z,101197.77
2018-04-27T01:13:05.991Z,101200.17
2018-04-27T01:16:00.159Z,101196.96
2018-04-27T01:18:31.077Z,101187.05
2018-04-27T01:21:01.254Z,101190.39
2018-04-27T01:23:32.173Z,101189.60
2018-04-27T01:26:02.423Z,101198.43
2018-04-27T01:28:32.602Z,101193.15
2018-04-27T01:31:03.621Z,101189.19
2018-04-27T01:33:46.673Z,101181.96
2018-04-27T01:36:22.152Z,101184.63
2018-04-27T01:39:07.687Z,101187.78
2018-04-27T01:41:38.313Z,101178.59
2018-04-27T01:44:09.035Z,101179.33
2018-04-27T01:46:39.424Z,101177.38
2018-04-27T01:49:09.686Z,101169.66
2018-04-27T01:51:39.833Z,101175.76
2018-04-27T01:54:10.450Z,101172.08
2018-04-27T01:56:42.159Z,101173.82
2018-04-27T01:59:12.474Z,101172.50
2018-04-27T02:01:42.911Z,101166.08
2018-04-27T02:04:13.458Z,101169.22
2018-04-27T02:06:43.582Z,101168.67
2018-04-27T02:09:13.677Z,101169.08
2018-04-27T02:11:44.892Z,101160.56
2018-04-27T02:14:15.140Z,101156.09
2018-04-27T02:16:46.842Z,101161.52
2018-04-27T02:19:17.373Z,101166.24
2018-04-27T02:21:48.021Z,101156.77
2018-04-27T02:24:19.159Z,101158.75
2018-04-27T02:26:49.473Z,101154.77
2018-04-27T02:29:19.751Z,101101.16
2018-04-27T02:31:51.687Z,101152.47
2018-04-27T02:34:21.990Z,101151.19
2018-04-27T02:36:52.267Z,101147.81
2018-04-27T02:39:22.779Z,101145.47
2018-04-27T02:41:52.916Z,101152.66
2018-04-27T02:44:23.168Z,101142.70
2018-04-27T02:46:54.477Z,101139.98
2018-04-27T02:49:25.834Z,101137.86
2018-04-27T02:51:56.356Z,101134.41
2018-04-27T02:54:26.660Z,101143.70
2018-04-27T02:56:56.962Z,101131.09
2018-04-27T02:59:28.817Z,101127.77
2018-04-27T03:01:59.653Z,101132.72
2018-04-27T03:04:29.675Z,101134.25
2018-04-27T03:06:59.760Z,101132.19
2018-04-27T03:09:29.915Z,101131.92
2018-04-27T03:12:00.364Z,101126.62
2018-04-27T03:14:30.585Z,101130.74
2018-04-27T03:17:01.147Z,101132.22
2018-04-27T03:19:31.620Z,101129.20
2018-04-27T03:22:01.963Z,101122.94
2018-04-27T03:24:32.299Z,101117.29
2018-04-27T03:27:03.014Z,101114.97
2018-04-27T03:29:33.129Z,101112.13
2018-04-27T03:32:04.761Z,101110.14
2018-04-27T03:34:35.963Z,101111.21
2018-04-27T03:37:06.365Z,101107.69
2018-04-27T03:39:37.349Z,101096.05
2018-04-27T03:42:11.523Z,101090.02
2018-04-27T03:44:42.595Z,101091.73
2018-04-27T03:47:12.991Z,101089.95
2018-04-27T03:49:43.188Z,101088.22
2018-04-27T03:52:13.685Z,101085.61
2018-04-27T03:54:44.869Z,101083.17
2018-04-27T03:57:16.315Z,101076.94
2018-04-27T03:59:56.358Z,101078.97
2018-04-27T04:04:41.632Z,101075.12
2018-04-27T04:07:11.866Z,101070.50
2018-04-27T04:09:42.876Z,101070.22
2018-04-27T04:12:13.457Z,101050.28
2018-04-27T04:14:43.715Z,101067.10
2018-04-27T04:17:13.914Z,101072.38
2018-04-27T04:19:44.543Z,101066.72
2018-04-27T04:22:14.668Z,101061.61
2018-04-27T04:24:45.486Z,101063.61
2018-04-27T04:27:15.808Z,101065.42
2018-04-27T04:29:56.487Z,101063.50
2018-04-27T04:32:27.697Z,101056.53
2018-04-27T04:34:58.276Z,101058.61
2018-04-27T04:37:28.758Z,101049.92
2018-04-27T04:40:03.378Z,101041.75
2018-04-27T04:42:33.761Z,101039.84
2018-04-27T04:45:06.090Z,101050.30
2018-04-27T04:47:36.605Z,101034.47
2018-04-27T04:50:07.204Z,101035.80
2018-04-27T04:52:42.600Z,101031.02
2018-04-27T04:55:13.341Z,101026.78
2018-04-27T04:57:44.505Z,101023.13
2018-04-27T05:00:18.541Z,101026.32
2018-04-27T05:02:49.940Z,101026.03
2018-04-27T05:05:25.546Z,101028.36
2018-04-27T05:07:57.338Z,101027.41
2018-04-27T05:10:35.463Z,101028.21
2018-04-27T05:13:07.262Z,101025.02
2018-04-27T05:15:44.346Z,101023.16
2018-04-27T05:18:18.483Z,101020.55
2018-04-27T05:20:49.429Z,101023.34
2018-04-27T05:23:25.874Z,101022.53
2018-04-27T05:25:57.593Z,101024.27
2018-04-27T05:28:28.006Z,101020.06
2018-04-27T05:31:00.234Z,101018.06
2018-04-27T05:33:30.702Z,100994.77
2018-04-27T05:36:01.103Z,101021.95
2018-04-27T05:38:31.708Z,101026.19
2018-04-27T05:41:02.035Z,101026.09
2018-04-27T05:43:33.053Z,101025.39
2018-04-27T05:46:04.182Z,100986.08
2018-04-27T05:48:35.524Z,101015.03
2018-04-27T05:51:13.117Z,101021.52
2018-04-27T05:56:24.293Z,101012.66
2018-04-27T05:58:55.426Z,101016.70
2018-04-27T06:01:26.607Z,101018.14
2018-04-27T06:04:14.398Z,101008.60
2018-04-27T06:06:46.228Z,101001.81
2018-04-27T06:09:16.853Z,101016.44
2018-04-27T06:11:49.538Z,101004.06
2018-04-27T06:14:20.466Z,101011.67
2018-04-27T06:16:50.742Z,101010.00
2018-04-27T06:19:23.201Z,101004.32
2018-04-27T06:21:54.888Z,101001.38
2018-04-27T06:24:33.087Z,101000.38
2018-04-27T06:27:06.385Z,100997.19
2018-04-27T06:29:36.887Z,100995.53
2018-04-27T06:32:07.633Z,100982.14
2018-04-27T06:34:38.045Z,100976.18
2018-04-27T06:37:08.613Z,100983.59
2018-04-27T06:39:39.881Z,100982.02
2018-04-27T06:42:18.051Z,100980.03
2018-04-27T06:44:48.964Z,100961.58
2018-04-27T06:47:19.829Z,100968.53
2018-04-27T06:49:51.156Z,100973.41
2018-04-27T06:52:22.923Z,100968.38
2018-04-27T06:54:56.302Z,100969.23
2018-04-27T06:57:28.671Z,100969.02
2018-04-27T07:00:00.351Z,100953.63
2018-04-27T07:02:38.186Z,100953.06
2018-04-27T07:05:09.472Z,100965.25
2018-04-27T07:07:40.556Z,100960.21
2018-04-27T07:10:12.105Z,100956.60
2018-04-27T07:12:42.777Z,100953.09
2018-04-27T07:15:21.119Z,100948.86
2018-04-27T07:17:53.237Z,100952.91
2018-04-27T07:20:25.734Z,100945.70
2018-04-27T07:22:56.293Z,100944.16
2018-04-27T07:25:34.744Z,100946.36
2018-04-27T07:28:05.113Z,100938.47
2018-04-27T07:30:36.180Z,100940.28
2018-04-27T07:33:06.595Z,100933.52
2018-04-27T07:35:37.266Z,100929.04
2018-04-27T07:38:09.646Z,100930.87
2018-04-27T07:40:42.066Z,100926.27
2018-04-27T07:43:12.859Z,100926.19
2018-04-27T07:45:43.955Z,100913.83
2018-04-27T07:48:16.930Z,100913.05
2018-04-27T07:50:48.382Z,100915.73
2018-04-27T07:53:20.755Z,100919.61
2018-04-27T07:55:52.542Z,100906.80
2018-04-27T07:58:26.502Z,100921.25
2018-04-27T08:01:04.577Z,100919.33
2018-04-27T08:03:35.680Z,100897.34
2018-04-27T08:06:19.342Z,100912.11
2018-04-27T08:08:51.839Z,100906.46
2018-04-27T08:11:25.581Z,100912.71
2018-04-27T08:13:57.123Z,100914.63
2018-04-27T08:16:47.077Z,100913.86
2018-04-27T08:19:26.154Z,100900.86
2018-04-27T08:21:59.047Z,100915.78
2018-04-27T08:24:30.198Z,100918.14
2018-04-27T08:27:11.570Z,100916.93
2018-04-27T08:29:43.086Z,100911.02
2018-04-27T08:32:18.335Z,100905.97
2018-04-27T08:34:50.515Z,100914.11
2018-04-27T08:37:21.362Z,100906.78
2018-04-27T08:39:52.738Z,100903.64
2018-04-27T08:45:09.668Z,100887.09
2018-04-27T08:47:49.867Z,100875.66
2018-04-27T08:50:20.978Z,100882.04
2018-04-27T08:52:51.393Z,100887.84
2018-04-27T08:55:21.977Z,100888.55
2018-04-27T08:57:53.776Z,100883.95
2018-04-27T09:00:24.849Z,100880.16
2018-04-27T09:02:55.404Z,100879.71
2018-04-27T09:05:26.061Z,100868.09
2018-04-27T09:07:56.695Z,100882.61
2018-04-27T09:10:27.120Z,100879.08
2018-04-27T09:12:58.253Z,100869.99
2018-04-27T09:15:28.782Z,100872.39
2018-04-27T09:17:59.722Z,100861.41
2018-04-27T09:20:31.574Z,100849.99
2018-04-27T09:23:06.974Z,100865.90
2018-04-27T09:25:38.808Z,100849.35
2018-04-27T09:28:19.234Z,100852.89
2018-04-27T09:30:50.112Z,100845.47
2018-04-27T09:33:21.556Z,100841.28
2018-04-27T09:35:51.597Z,100839.61
2018-04-27T09:38:21.825Z,100833.97
2018-04-27T09:40:52.210Z,100828.52
2018-04-27T09:43:28.525Z,100830.82
2018-04-27T09:45:59.369Z,100834.94
2018-04-27T09:48:34.739Z,100826.47
2018-04-27T09:51:05.761Z,100803.33
2018-04-27T09:53:47.025Z,100804.58
2018-04-27T09:56:20.065Z,100797.11
2018-04-27T09:58:50.690Z,100788.30
2018-04-27T10:01:22.189Z,100776.84
2018-04-27T10:06:33.617Z,100782.61
2018-04-27T10:11:45.051Z,100771.19
2018-04-27T10:14:22.521Z,100767.99
2018-04-27T10:16:54.146Z,100752.16
2018-04-27T10:19:41.478Z,100759.61
2018-04-27T10:22:52.161Z,100754.00
2018-04-27T10:25:30.385Z,100716.98
2018-04-27T10:28:02.049Z,100748.44
2018-04-27T10:30:34.279Z,100747.52
2018-04-27T10:33:05.047Z,100738.27
2018-04-27T10:35:36.242Z,100740.28
2018-04-27T10:38:06.876Z,100730.47
2018-04-27T10:40:37.968Z,100728.58
2018-04-27T10:43:08.749Z,100729.34
2018-04-27T10:45:40.840Z,100729.83
2018-04-27T10:48:11.688Z,100724.13
2018-04-27T10:50:47.912Z,100716.44
2018-04-27T10:53:18.531Z,100704.77
2018-04-27T10:55:55.148Z,100722.19
2018-04-27T10:58:27.121Z,100709.23
2018-04-27T11:00:58.951Z,100703.05
2018-04-27T11:03:29.640Z,100692.13
2018-04-27T11:06:00.604Z,100694.11
2018-04-27T11:08:30.918Z,100694.20
2018-04-27T11:11:02.277Z,100701.38
2018-04-27T11:13:32.529Z,100688.51
2018-04-27T11:16:03.325Z,100684.37
2018-04-27T11:18:33.622Z,100677.59
2018-04-27T11:21:03.846Z,100682.05
2018-04-27T11:23:39.461Z,100684.39
2018-04-27T11:26:22.869Z,100673.92
2018-04-27T11:29:04.875Z,100669.36
2018-04-27T11:31:50.877Z,100661.63
2018-04-27T11:34:25.714Z,100658.98
2018-04-27T11:36:57.624Z,100652.11
2018-04-27T11:39:28.780Z,100641.20
2018-04-27T11:42:07.754Z,100639.98
2018-04-27T11:44:38.221Z,100635.58
2018-04-27T11:47:09.677Z,100627.97
2018-04-27T11:49:42.088Z,100624.86
2018-04-27T11:52:13.394Z,100621.25
2018-04-27T11:54:45.265Z,100603.81
2018-04-27T11:57:21.576Z,100598.64
2018-04-27T12:02:18.819Z,100590.30
2018-04-27T12:04:50.348Z,100582.97
2018-04-27T12:07:24.770Z,100569.84
2018-04-27T12:09:59.524Z,100562.63
2018-04-27T12:12:33.069Z,100557.28
2018-04-27T12:15:16.310Z,100563.14
2018-04-27T12:17:49.590Z,100549.11
2018-04-27T12:20:22.839Z,100545.39
2018-04-27T12:22:53.934Z,100538.66
2018-04-27T12:25:28.273Z,100528.42
2018-04-27T12:28:00.626Z,100525.59
2018-04-27T12:30:33.160Z,100524.47
2018-04-27T12:33:03.658Z,100520.05
2018-04-27T12:35:36.626Z,100518.33
2018-04-27T12:38:07.267Z,100518.17
2018-04-27T12:40:38.310Z,100517.53
2018-04-27T12:43:09.598Z,100508.77
2018-04-27T12:45:42.309Z,100503.54
2018-04-27T12:48:13.102Z,100507.78
2018-04-27T12:50:46.954Z,100494.97
2018-04-27T12:53:18.234Z,100488.95
2018-04-27T12:55:48.834Z,100483.53
2018-04-27T12:58:19.741Z,100478.78
2018-04-27T13:00:50.817Z,100473.71
2018-04-27T13:03:23.497Z,100468.77
2018-04-27T13:05:55.376Z,100461.39
2018-04-27T13:08:33.441Z,100454.30
2018-04-27T13:11:05.452Z,100447.35
2018-04-27T13:13:37.423Z,100453.97
2018-04-27T13:16:11.387Z,100463.55
2018-04-27T13:18:42.855Z,100458.13
2018-04-27T13:21:20.345Z,100462.94
2018-04-27T13:23:55.845Z,100434.70
2018-04-27T13:26:26.145Z,100460.25
2018-04-27T13:28:56.917Z,100434.19
2018-04-27T13:31:28.701Z,100447.08
2018-04-27T13:34:06.370Z,100422.23
2018-04-27T13:36:36.673Z,100455.14
2018-04-27T13:39:07.196Z,100450.63
2018-04-27T13:41:37.453Z,100455.22
2018-04-27T13:44:07.699Z,100444.68
2018-04-27T13:46:39.057Z,100449.29
2018-04-27T13:49:09.671Z,100440.39
2018-04-27T13:51:40.126Z,100438.67
2018-04-27T13:54:10.792Z,100431.46
2018-04-27T13:56:41.468Z,100431.27
2018-04-27T13:59:11.894Z,100427.16
2018-04-27T14:01:42.647Z,100412.08
2018-04-27T14:04:13.089Z,100405.25
2018-04-27T14:06:44.133Z,100410.41
2018-04-27T14:11:41.060Z,100382.33
2018-04-27T14:14:12.328Z,100389.72
2018-04-27T14:16:44.321Z,100382.97
2018-04-27T14:19:16.340Z,100377.27
2018-04-27T14:21:47.460Z,100370.79
2018-04-27T14:24:35.156Z,100363.61
2018-04-27T14:27:06.562Z,100365.52
2018-04-27T14:29:37.617Z,100356.50
2018-04-27T14:34:39.675Z,100332.76
2018-04-27T14:37:11.727Z,100331.87
2018-04-27T14:39:43.830Z,100335.84
2018-04-27T14:42:14.198Z,100328.30
2018-04-27T14:44:52.687Z,100330.82
2018-04-27T14:47:29.667Z,100321.35
2018-04-27T14:50:00.640Z,100311.67
2018-04-27T14:52:32.565Z,100290.44
2018-04-27T14:55:03.371Z,100312.27
2018-04-27T14:57:33.877Z,100299.55
2018-04-27T15:00:08.391Z,100305.77
2018-04-27T15:02:38.851Z,100312.70
2018-04-27T15:05:10.668Z,100310.11
2018-04-27T15:07:41.128Z,100313.62
2018-04-27T15:10:11.831Z,100310.41
2018-04-27T15:12:42.424Z,100311.32
2018-04-27T15:15:18.211Z,100307.81
2018-04-27T15:17:55.251Z,100307.59
2018-04-27T15:20:26.138Z,100309.50
2018-04-27T15:22:56.698Z,100307.16
2018-04-27T15:25:28.063Z,100296.15
2018-04-27T15:28:03.281Z,100273.29
2018-04-27T15:30:45.784Z,100275.06
2018-04-27T15:33:19.509Z,100279.20
2018-04-27T15:35:51.511Z,100272.45
2018-04-27T15:38:21.947Z,100278.19
2018-04-27T15:40:53.185Z,100275.33
2018-04-27T15:43:27.756Z,100266.98
2018-04-27T15:46:03.238Z,100252.11
2018-04-27T15:48:36.644Z,100256.36
2018-04-27T15:51:09.222Z,100271.36
2018-04-27T15:53:40.482Z,100261.04
2018-04-27T15:56:12.328Z,100263.52
2018-04-27T15:58:51.558Z,100243.14
2018-04-27T16:01:25.845Z,100254.73
2018-04-27T16:03:58.243Z,100251.97
2018-04-27T16:06:34.548Z,100244.66
2018-04-27T16:09:17.790Z,100245.85
2018-04-27T16:11:57.540Z,100246.30
2018-04-27T16:14:29.212Z,100245.39
2018-04-27T16:17:00.269Z,100248.25
2018-04-27T16:19:31.111Z,100250.87
2018-04-27T16:22:02.713Z,100244.26
2018-04-27T16:24:33.767Z,100243.56
2018-04-27T16:27:07.157Z,100241.13
2018-04-27T16:29:40.438Z,100241.41
2018-04-27T16:32:11.483Z,100233.34
2018-04-27T16:34:43.449Z,100238.53
2018-04-27T16:37:14.792Z,100236.22
2018-04-27T16:39:45.239Z,100214.58
2018-04-27T16:42:15.861Z,100236.95
2018-04-27T16:44:47.466Z,100236.84
2018-04-27T16:47:18.299Z,100226.25
2018-04-27T16:49:48.958Z,100234.61
2018-04-27T16:52:19.319Z,100231.72
2018-04-27T16:57:30.651Z,100229.89
2018-04-27T17:00:01.246Z,100223.70
2018-04-27T17:02:37.202Z,100218.02
2018-04-27T17:05:09.085Z,100225.65
2018-04-27T17:14:20.107Z,100216.76
2018-04-27T17:17:18.397Z,100209.67
2018-04-27T17:19:52.038Z,100211.75
2018-04-27T17:22:22.337Z,100209.81
2018-04-27T17:24:53.593Z,100205.63
2018-04-27T17:30:21.885Z,100208.62
2018-04-27T17:32:53.492Z,100210.44
2018-04-27T17:35:25.294Z,100202.16
2018-04-27T17:37:55.384Z,100202.02
2018-04-27T17:40:25.869Z,100199.70
2018-04-27T17:43:19.447Z,100194.32
2018-04-27T17:45:49.788Z,100186.27
2018-04-27T17:48:20.049Z,100193.06
2018-04-27T17:50:51.549Z,100191.58
2018-04-27T17:53:22.652Z,100198.91
2018-04-27T17:55:53.583Z,100198.42
2018-04-27T17:58:23.827Z,100188.92
2018-04-27T18:00:55.052Z,100193.47
2018-04-27T18:03:26.018Z,100194.41
2018-04-27T18:05:56.803Z,100197.31
2018-04-27T18:08:27.275Z,100199.98
2018-04-27T18:11:00.699Z,100205.96
2018-04-27T18:13:31.017Z,100205.51
2018-04-27T18:16:01.588Z,100202.97
2018-04-27T18:18:36.130Z,100208.56
2018-04-27T18:21:07.604Z,100209.11
2018-04-27T18:23:38.103Z,100205.39
2018-04-27T18:26:09.857Z,100206.49
2018-04-27T18:28:40.394Z,100206.91
2018-04-27T18:31:10.946Z,100213.44
2018-04-27T18:33:41.468Z,100203.13
2018-04-27T18:36:12.715Z,100206.56
2018-04-27T18:38:43.479Z,100206.96
2018-04-27T18:41:14.290Z,100203.27
2018-04-27T18:43:45.542Z,100210.27
2018-04-27T18:46:16.731Z,100213.93
2018-04-27T18:48:47.843Z,100215.47
2018-04-27T18:51:20.180Z,100208.36
2018-04-27T18:53:54.513Z,100208.98
2018-04-27T18:56:25.413Z,100215.09
2018-04-27T18:58:56.655Z,100214.66
2018-04-27T19:01:27.474Z,100213.91
2018-04-27T19:03:59.209Z,100213.18
2018-04-27T19:06:29.511Z,100210.60
2018-04-27T19:09:01.299Z,100211.41
2018-04-27T19:11:32.143Z,100209.66
2018-04-27T19:14:04.217Z,100208.24
2018-04-27T19:16:35.774Z,100211.45
2018-04-27T19:19:06.156Z,100214.80
2018-04-27T19:21:36.731Z,100216.34
2018-04-27T19:24:07.157Z,100214.47
2018-04-27T19:26:37.704Z,100217.70
2018-04-27T19:29:15.562Z,100210.66
2018-04-27T19:31:46.943Z,100213.96
2018-04-27T19:34:22.965Z,100220.50
2018-04-27T19:37:09.009Z,100216.54
2018-04-27T19:39:39.886Z,100217.47
2018-04-27T19:42:10.551Z,100220.05
2018-04-27T19:44:41.329Z,100220.16
2018-04-27T19:47:14.271Z,100215.84
2018-04-27T19:49:44.494Z,100214.17
2018-04-27T19:52:15.812Z,100211.38
2018-04-27T19:54:48.343Z,100217.39
2018-04-27T19:57:22.177Z,100217.17
2018-04-27T19:59:57.429Z,100216.56
2018-04-27T20:02:28.712Z,100213.90
2018-04-27T20:05:05.520Z,100213.46
2018-04-27T20:07:36.558Z,100221.46
2018-04-27T20:10:13.950Z,100216.27
2018-04-27T20:12:45.301Z,100220.20
2018-04-27T20:15:19.002Z,100219.97
2018-04-27T20:17:51.718Z,100216.63
2018-04-27T20:20:31.362Z,100220.46
2018-04-27T20:23:05.900Z,100216.99
2018-04-27T20:25:38.834Z,100220.91
2018-04-27T20:28:09.739Z,100225.41
2018-04-27T20:30:40.519Z,100227.82
2018-04-27T20:33:17.652Z,100230.93
2018-04-27T20:35:48.360Z,100231.20
2018-04-27T20:38:22.622Z,100236.48
2018-04-27T20:40:58.564Z,100241.05
2018-04-27T20:43:44.964Z,100237.59
2018-04-27T20:46:17.258Z,100239.66
2018-04-27T20:48:47.803Z,100255.66
2018-04-27T20:51:18.848Z,100242.28
2018-04-27T20:53:52.184Z,100227.31
2018-04-27T20:56:24.848Z,100241.14
2018-04-27T20:58:56.968Z,100238.33
2018-04-27T21:01:28.136Z,100237.49
2018-04-27T21:03:59.185Z,100233.22
2018-04-27T21:06:30.504Z,100233.00
2018-04-27T21:09:03.801Z,100241.39
2018-04-27T21:11:35.240Z,100238.30
2018-04-27T21:14:06.578Z,100226.42
2018-04-27T21:16:37.022Z,100240.52
2018-04-27T21:19:08.276Z,100237.12
2018-04-27T21:21:39.668Z,100250.41
2018-04-27T21:24:10.687Z,100250.52
2018-04-27T21:26:42.439Z,100253.95
2018-04-27T21:29:16.066Z,100255.64
2018-04-27T21:31:48.700Z,100257.15
2018-04-27T21:34:19.318Z,100258.08
2018-04-27T21:36:50.330Z,100262.12
2018-04-27T21:39:24.603Z,100257.06
2018-04-27T21:42:03.860Z,100261.19
2018-04-27T21:44:34.612Z,100265.15
2018-04-27T21:47:06.197Z,100264.55
2018-04-27T21:49:36.958Z,100261.56
2018-04-27T21:52:08.324Z,100252.75
2018-04-27T21:54:41.748Z,100260.72
2018-04-27T21:57:19.378Z,100273.23
2018-04-27T21:59:49.785Z,100269.54
2018-04-27T22:02:26.334Z,100272.18
2018-04-27T22:05:03.969Z,100268.05
2018-04-27T22:07:38.122Z,100279.47
2018-04-27T22:10:10.234Z,100263.06
2018-04-27T22:12:41.354Z,100273.48
2018-04-27T22:15:14.855Z,100275.38
2018-04-27T22:17:47.603Z,100274.19
2018-04-27T22:20:18.382Z,100276.21
2018-04-27T22:22:51.852Z,100286.80
2018-04-27T22:25:23.109Z,100286.72
2018-04-27T22:27:54.081Z,100280.73
2018-04-27T22:30:24.595Z,100291.05
2018-04-27T22:32:55.400Z,100288.90
2018-04-27T22:35:38.819Z,100280.63
2018-04-27T22:38:12.977Z,100289.73
2018-04-27T22:40:46.044Z,100291.73
2018-04-27T22:43:17.258Z,100294.80
2018-04-27T22:48:32.856Z,100291.45
2018-04-27T22:51:03.953Z,100293.05
2018-04-27T22:53:34.955Z,100287.47
2018-04-27T22:56:10.491Z,100289.06
2018-04-27T22:58:42.146Z,100294.88
2018-04-27T23:03:51.964Z,100284.34
2018-04-27T23:06:39.262Z,100282.52
2018-04-27T23:09:17.198Z,100284.58
2018-04-27T23:11:49.195Z,100286.72
2018-04-27T23:14:22.995Z,100285.69
2018-04-27T23:16:54.486Z,100287.72
2018-04-27T23:19:25.402Z,100291.48
2018-04-27T23:21:57.700Z,100296.62
2018-04-27T23:24:27.997Z,100295.76
2018-04-27T23:27:03.649Z,100297.37
2018-04-27T23:29:33.894Z,100303.26
2018-04-27T23:32:04.767Z,100300.56
2018-04-27T23:34:35.046Z,100303.59
2018-04-27T23:37:07.907Z,100297.87
2018-04-27T23:39:39.955Z,100295.84
2018-04-27T23:42:11.070Z,100299.88
2018-04-27T23:44:41.628Z,100301.29
2018-04-27T23:47:13.248Z,100297.58
2018-04-27T23:49:45.004Z,100305.75
2018-04-27T23:52:15.680Z,100307.49
2018-04-27T23:54:45.896Z,100311.92
2018-04-27T23:57:16.499Z,100319.48
2018-04-27T23:59:47.264Z,100325.79
